createdAt,value
2023-10-08T00:01:08.438Z,18.50
2023-10-08T00:06:15.502Z,22.00
2023-10-08T00:11:18.691Z,19.00
2023-10-08T00:16:23.044Z,17.25
2023-10-08T00:21:28.749Z,18.25
2023-10-08T00:26:33.162Z,18.00
2023-10-08T00:31:41.646Z,18.50
2023-10-08T00:36:47.438Z,14.50
2023-10-08T00:41:51.951Z,17.25
2023-10-08T00:46:56.909Z,17.25
2023-10-08T00:52:19.219Z,16.00
2023-10-08T00:57:25.304Z,10.75
2023-10-08T01:02:44.066Z,15.25
2023-10-08T01:07:52.320Z,12.00
2023-10-08T01:13:06.159Z,11.50
2023-10-08T01:18:15.943Z,11.75
2023-10-08T01:23:22.181Z,11.25
2023-10-08T01:28:30.160Z,10.75
2023-10-08T01:33:38.697Z,10.50
2023-10-08T01:38:43.676Z,10.25
2023-10-08T01:43:48.959Z,8.00
2023-10-08T01:48:57.239Z,14.50
2023-10-08T01:54:01.598Z,10.25
2023-10-08T01:59:05.484Z,7.75
2023-10-08T02:04:09.762Z,10.50
2023-10-08T02:09:15.128Z,8.25
2023-10-08T02:14:18.011Z,8.00
2023-10-08T02:19:27.827Z,5.25
2023-10-08T02:24:33.837Z,5.00
2023-10-08T02:29:36.699Z,5.25
2023-10-08T02:34:39.508Z,5.50
2023-10-08T02:39:45.878Z,7.00
2023-10-08T02:44:48.753Z,8.00
2023-10-08T02:49:53.232Z,8.25
2023-10-08T02:54:57.469Z,7.75
2023-10-08T03:00:00.922Z,5.25
2023-10-08T03:05:04.216Z,7.25
2023-10-08T03:10:19.054Z,8.25
2023-10-08T03:15:30.543Z,8.00
2023-10-08T03:20:43.328Z,7.75
2023-10-08T03:25:48.237Z,4.75
2023-10-08T03:30:51.667Z,5.00
2023-10-08T03:35:56.700Z,5.00
2023-10-08T03:41:07.560Z,3.00
2023-10-08T03:46:16.471Z,5.50
2023-10-08T03:51:21.897Z,7.00
2023-10-08T03:56:26.795Z,3.75
2023-10-08T04:01:33.428Z,3.25
2023-10-08T04:06:39.949Z,4.00
2023-10-08T04:11:57.230Z,3.25
2023-10-08T04:17:02.190Z,3.00
2023-10-08T04:22:05.733Z,4.00
2023-10-08T04:27:10.818Z,3.00
2023-10-08T04:32:22.245Z,3.00
2023-10-08T04:37:33.352Z,3.75
2023-10-08T04:42:40.314Z,3.00
2023-10-08T04:47:44.709Z,4.25
2023-10-08T04:53:04.302Z,3.00
2023-10-08T04:58:13.464Z,2.50
2023-10-08T05:03:16.447Z,2.75
2023-10-08T05:08:29.740Z,2.25
2023-10-08T05:13:46.234Z,4.50
2023-10-08T05:19:25.703Z,3.75
2023-10-08T05:24:39.128Z,3.25
2023-10-08T05:30:12.541Z,3.00
2023-10-08T05:35:50.253Z,2.00
2023-10-08T05:41:18.175Z,2.50
2023-10-08T05:46:36.452Z,1.25
2023-10-08T05:51:57.761Z,3.75
2023-10-08T05:57:15.694Z,1.00
2023-10-08T06:02:29.956Z,2.75
2023-10-08T06:07:48.806Z,1.50
2023-10-08T06:13:02.817Z,1.00
2023-10-08T06:18:09.103Z,2.75
2023-10-08T06:23:14.896Z,2.25
2023-10-08T06:28:20.989Z,2.25
2023-10-08T06:33:26.850Z,2.25
2023-10-08T06:38:31.816Z,1.75
2023-10-08T06:43:37.671Z,2.00
2023-10-08T06:48:43.536Z,1.50
2023-10-08T06:53:49.848Z,2.00
2023-10-08T06:58:54.388Z,1.50
2023-10-08T07:04:04.851Z,2.00
2023-10-08T07:09:23.254Z,4.00
2023-10-08T07:14:28.038Z,0.00
2023-10-08T07:19:38.625Z,0.00
2023-10-08T07:24:41.973Z,0.00
2023-10-08T07:29:49.976Z,0.50
2023-10-08T07:35:05.561Z,1.00
2023-10-08T07:40:13.007Z,0.00
2023-10-08T07:45:18.945Z,0.00
2023-10-08T07:50:25.196Z,0.00
2023-10-08T07:55:28.046Z,1.50
2023-10-08T08:00:39.703Z,0.00
2023-10-08T08:05:45.324Z,1.25
2023-10-08T08:10:48.242Z,1.00
2023-10-08T08:15:52.885Z,1.00
2023-10-08T08:21:03.101Z,0.25
2023-10-08T08:26:12.642Z,1.25
2023-10-08T08:31:15.540Z,0.50
2023-10-08T08:36:19.810Z,0.00
2023-10-08T08:41:24.313Z,0.00
2023-10-08T08:46:33.816Z,0.00
2023-10-08T08:51:38.854Z,0.50
2023-10-08T08:56:44.997Z,0.00
2023-10-08T09:01:48.687Z,0.50
2023-10-08T09:06:54.999Z,0.00
2023-10-08T09:11:59.124Z,0.00
2023-10-08T09:17:05.559Z,0.00
2023-10-08T09:22:12.813Z,0.00
2023-10-08T09:27:16.883Z,1.00
2023-10-08T09:32:25.075Z,1.25
2023-10-08T09:37:30.129Z,1.50
2023-10-08T09:42:33.368Z,1.00
2023-10-08T09:47:40.861Z,0.75
2023-10-08T09:52:58.107Z,1.75
2023-10-08T09:58:01.110Z,0.00
2023-10-08T10:03:04.993Z,1.50
2023-10-08T10:08:11.381Z,1.00
2023-10-08T10:13:14.902Z,0.00
2023-10-08T10:18:29.824Z,1.00
2023-10-08T10:23:43.767Z,2.00
2023-10-08T10:28:46.648Z,0.50
2023-10-08T10:33:50.222Z,0.00
2023-10-08T10:38:55.298Z,1.75
2023-10-08T10:44:00.223Z,1.75
2023-10-08T10:49:08.569Z,2.00
2023-10-08T10:54:13.231Z,2.00
2023-10-08T10:59:21.000Z,2.00
2023-10-08T11:04:30.104Z,4.00
2023-10-08T11:09:39.783Z,4.75
2023-10-08T11:14:43.747Z,5.00
2023-10-08T11:19:47.974Z,6.00
2023-10-08T11:24:55.220Z,5.25
2023-10-08T11:29:59.298Z,5.25
2023-10-08T11:35:17.322Z,4.00
2023-10-08T11:40:31.092Z,4.25
2023-10-08T11:45:39.852Z,4.25
2023-10-08T11:50:43.059Z,4.25
2023-10-08T11:55:49.240Z,3.50
2023-10-08T12:00:53.727Z,3.75
2023-10-08T12:06:00.802Z,4.50
2023-10-08T12:11:07.841Z,3.75
2023-10-08T12:16:13.675Z,5.00
2023-10-08T12:21:18.619Z,3.50
2023-10-08T12:26:23.049Z,3.25
2023-10-08T12:31:26.157Z,4.75
2023-10-08T12:36:33.966Z,3.75
2023-10-08T12:41:39.513Z,3.75
2023-10-08T12:46:44.990Z,4.50
2023-10-08T12:51:47.811Z,3.00
2023-10-08T12:56:56.028Z,5.00
2023-10-08T13:01:59.087Z,3.50
2023-10-08T13:07:03.820Z,4.75
2023-10-08T13:12:08.465Z,3.00
2023-10-08T13:17:12.154Z,4.75
2023-10-08T13:22:20.955Z,5.75
2023-10-08T13:27:25.785Z,4.00
2023-10-08T13:32:29.135Z,2.25
2023-10-08T13:37:32.150Z,3.75
2023-10-08T13:42:36.419Z,2.75
2023-10-08T13:47:41.235Z,3.75
2023-10-08T13:52:45.506Z,3.25
2023-10-08T13:57:49.753Z,2.25
2023-10-08T14:02:54.309Z,2.50
2023-10-08T14:07:58.905Z,1.75
2023-10-08T14:13:03.244Z,2.25
2023-10-08T14:18:09.683Z,2.00
2023-10-08T14:23:12.644Z,4.25
2023-10-08T14:28:24.066Z,2.00
2023-10-08T14:33:29.241Z,4.00
2023-10-08T14:38:49.513Z,3.00
2023-10-08T14:43:53.807Z,3.00
2023-10-08T14:48:56.851Z,4.50
2023-10-08T14:54:00.163Z,4.25
2023-10-08T14:59:05.683Z,3.25
2023-10-08T15:04:12.549Z,2.25
2023-10-08T15:09:22.205Z,3.00
2023-10-08T15:14:27.723Z,5.25
2023-10-08T15:19:30.855Z,4.00
2023-10-08T15:24:37.083Z,3.00
2023-10-08T15:29:41.929Z,3.00
2023-10-08T15:34:46.460Z,5.00
2023-10-08T15:39:52.770Z,2.25
2023-10-08T15:44:57.216Z,3.25
2023-10-08T15:50:00.565Z,5.00
2023-10-08T15:55:04.994Z,5.00
2023-10-08T16:00:14.632Z,5.25
2023-10-08T16:05:18.799Z,3.50
2023-10-08T16:10:22.642Z,4.00
2023-10-08T16:15:26.922Z,5.00
2023-10-08T16:20:31.033Z,4.50
2023-10-08T16:25:33.928Z,6.00
2023-10-08T16:30:39.460Z,6.25
2023-10-08T16:35:42.464Z,6.00
2023-10-08T16:40:48.102Z,4.25
2023-10-08T16:45:53.049Z,7.75
2023-10-08T16:50:55.985Z,6.00
2023-10-08T16:55:58.928Z,7.00
2023-10-08T17:01:03.395Z,6.50
2023-10-08T17:06:08.946Z,6.25
2023-10-08T17:11:14.539Z,4.75
2023-10-08T17:16:18.781Z,6.50
2023-10-08T17:21:23.575Z,5.00
2023-10-08T17:26:26.423Z,7.00
2023-10-08T17:31:34.954Z,5.25
2023-10-08T17:36:38.121Z,5.75
2023-10-08T17:41:41.102Z,4.50
2023-10-08T17:46:45.612Z,7.00
2023-10-08T17:51:48.568Z,5.25
2023-10-08T17:56:52.370Z,6.00
2023-10-08T18:01:56.700Z,7.50
2023-10-08T18:06:59.833Z,6.00
2023-10-08T18:12:02.859Z,6.50
2023-10-08T18:17:07.575Z,8.50
2023-10-08T18:22:11.417Z,7.25
2023-10-08T18:27:14.206Z,5.00
2023-10-08T18:32:18.404Z,6.25
2023-10-08T18:37:22.639Z,6.75
2023-10-08T18:42:28.680Z,8.00
2023-10-08T18:47:34.536Z,5.00
2023-10-08T18:52:38.155Z,8.00
2023-10-08T18:57:42.916Z,6.00
2023-10-08T19:02:47.494Z,9.00
2023-10-08T19:07:51.885Z,6.50
2023-10-08T19:12:55.416Z,7.25
2023-10-08T19:18:05.699Z,6.50
2023-10-08T19:23:09.746Z,6.50
2023-10-08T19:34:31.589Z,7.00
2023-10-08T19:39:34.608Z,8.25
2023-10-08T19:44:37.446Z,6.50
2023-10-08T19:49:41.608Z,5.50
2023-10-08T19:54:44.673Z,5.25
2023-10-08T19:59:47.498Z,4.50
2023-10-08T20:04:51.953Z,8.00
2023-10-08T20:09:54.735Z,7.75
2023-10-08T20:14:58.429Z,8.00
2023-10-08T20:20:03.052Z,5.00
2023-10-08T20:25:07.204Z,7.75
2023-10-08T20:30:12.557Z,8.00
2023-10-08T20:35:18.904Z,6.00
2023-10-08T20:40:26.056Z,6.00
2023-10-08T20:45:31.181Z,6.00
2023-10-08T20:50:38.820Z,5.00
2023-10-08T20:55:42.968Z,5.75
2023-10-08T21:00:46.978Z,6.00
2023-10-08T21:05:52.014Z,6.75
2023-10-08T21:16:02.969Z,6.00
2023-10-08T21:21:09.419Z,7.50
2023-10-08T21:26:12.958Z,6.25
2023-10-08T21:31:16.877Z,5.25
2023-10-08T21:36:21.100Z,4.25
2023-10-08T21:41:23.927Z,4.75
2023-10-08T21:46:26.863Z,5.50
2023-10-08T21:51:31.144Z,5.00
2023-10-08T21:56:34.001Z,4.25
2023-10-08T22:01:39.241Z,7.00
2023-10-08T22:06:44.504Z,4.75
2023-10-08T22:11:50.392Z,3.75
2023-10-08T22:16:53.264Z,5.00
2023-10-08T22:21:58.480Z,4.25
2023-10-08T22:27:01.511Z,4.50
2023-10-08T22:32:09.280Z,4.75
2023-10-08T22:37:20.345Z,5.75
2023-10-08T22:42:26.658Z,5.00
2023-10-08T22:47:33.320Z,5.25
2023-10-08T22:52:37.612Z,4.00
2023-10-08T22:57:41.208Z,6.75
2023-10-08T23:02:46.330Z,5.50
2023-10-08T23:07:53.836Z,5.50
2023-10-08T23:12:56.714Z,6.67
2023-10-08T23:17:59.664Z,4.75
2023-10-08T23:23:06.688Z,4.75
2023-10-08T23:28:09.556Z,6.00
2023-10-08T23:33:12.503Z,5.75
2023-10-08T23:38:32.859Z,3.50
2023-10-08T23:43:42.057Z,4.00
2023-10-08T23:48:53.928Z,3.50
2023-10-08T23:54:02.892Z,4.50
2023-10-08T23:59:15.280Z,3.25
